sensor_id;sensor_type;location;lat;lon;timestamp;pressure;altitude;pressure_sealevel;temperature;humidity
75933;BME280;64803;52.356;5.310;2023-03-03T11:43:00;103059.81;;;15.97;63.55
75933;BME280;64803;52.356;5.310;2023-03-03T11:45:36;103078.09;;;16.46;62.45
75933;BME280;64803;52.356;5.310;2023-03-03T11:48:17;103074.13;;;16.66;61.04
75933;BME280;64803;52.356;5.310;2023-03-03T11:50:55;103080.78;;;16.80;58.70
75933;BME280;64803;52.356;5.310;2023-03-03T11:56:22;103076.56;;;16.85;56.92
75933;BME280;64803;52.356;5.310;2023-03-03T12:01:48;103070.28;;;16.77;56.19
75933;BME280;64803;52.356;5.310;2023-03-03T12:04:19;103066.66;;;16.68;55.98
75933;BME280;64803;52.356;5.310;2023-03-03T12:09:56;103065.38;;;16.80;54.66
75933;BME280;64803;52.356;5.310;2023-03-03T12:12:39;103075.88;;;16.83;54.42
75933;BME280;64803;52.356;5.310;2023-03-03T12:15:10;103063.16;;;16.84;54.03
75933;BME280;64803;52.356;5.310;2023-03-03T12:20:28;103059.94;;;16.88;53.51
75933;BME280;64803;52.356;5.310;2023-03-03T12:23:24;103068.59;;;16.92;53.71
75933;BME280;64803;52.356;5.310;2023-03-03T12:26:20;103061.31;;;16.93;53.23
75933;BME280;64803;52.356;5.310;2023-03-03T12:28:57;103059.06;;;16.80;52.87
75933;BME280;64803;52.356;5.310;2023-03-03T12:31:46;103059.59;;;16.83;52.85
75933;BME280;64803;52.356;5.310;2023-03-03T12:34:23;103058.41;;;16.86;53.38
75933;BME280;64803;52.356;5.310;2023-03-03T12:39:56;103051.09;;;16.78;52.42
75933;BME280;64803;52.356;5.310;2023-03-03T12:42:55;103056.00;;;16.75;51.61
75933;BME280;64803;52.356;5.310;2023-03-03T12:45:39;103046.31;;;16.72;51.99
75933;BME280;64803;52.356;5.310;2023-03-03T12:48:15;103044.13;;;16.68;51.58
75933;BME280;64803;52.356;5.310;2023-03-03T12:50:54;103044.13;;;16.68;51.28
75933;BME280;64803;52.356;5.310;2023-03-03T12:56:03;103040.72;;;16.66;50.86
75933;BME280;64803;52.356;5.310;2023-03-03T13:04:33;103031.94;;;16.80;50.79
75933;BME280;64803;52.356;5.310;2023-03-03T13:10:01;103032.13;;;16.86;51.22
75933;BME280;64803;52.356;5.310;2023-03-03T13:12:37;103032.13;;;16.86;50.52
75933;BME280;64803;52.356;5.310;2023-03-03T13:15:38;103033.84;;;16.88;51.09
75933;BME280;64803;52.356;5.310;2023-03-03T13:18:24;103038.56;;;16.85;49.90
75933;BME280;64803;52.356;5.310;2023-03-03T13:21:04;103039.56;;;16.84;50.32
75933;BME280;64803;52.356;5.310;2023-03-03T13:24:06;103014.78;;;16.71;49.99
75933;BME280;64803;52.356;5.310;2023-03-03T13:26:42;103030.09;;;16.80;50.22
75933;BME280;64803;52.356;5.310;2023-03-03T13:29:24;103034.81;;;16.78;49.94
75933;BME280;64803;52.356;5.310;2023-03-03T13:31:58;103038.22;;;16.80;50.55
75933;BME280;64803;52.356;5.310;2023-03-03T13:34:56;103033.09;;;16.77;49.46
75933;BME280;64803;52.356;5.310;2023-03-03T13:37:28;103038.53;;;16.77;49.32
75933;BME280;64803;52.356;5.310;2023-03-03T13:42:43;103032.28;;;16.77;49.54
75933;BME280;64803;52.356;5.310;2023-03-03T13:45:24;103033.78;;;16.79;49.82
75933;BME280;64803;52.356;5.310;2023-03-03T13:48:14;103035.66;;;16.79;49.62
75933;BME280;64803;52.356;5.310;2023-03-03T13:50:51;103004.53;;;16.49;49.03
75933;BME280;64803;52.356;5.310;2023-03-03T13:57:24;103030.22;;;16.71;49.47
75933;BME280;64803;52.356;5.310;2023-03-03T13:59:40;103034.59;;;16.72;48.86
75933;BME280;64803;52.356;5.310;2023-03-03T14:04:52;103032.41;;;16.75;49.74
75933;BME280;64803;52.356;5.310;2023-03-03T14:07:32;102992.84;;;16.49;48.80
75933;BME280;64803;52.356;5.310;2023-03-03T14:12:39;103031.75;;;16.73;48.77
75933;BME280;64803;52.356;5.310;2023-03-03T14:15:26;103022.94;;;16.71;49.16
75933;BME280;64803;52.356;5.310;2023-03-03T14:18:09;103027.50;;;16.71;48.95
75933;BME280;64803;52.356;5.310;2023-03-03T14:20:50;103031.06;;;16.71;49.13
75933;BME280;64803;52.356;5.310;2023-03-03T14:25:55;103024.63;;;16.72;49.12
75933;BME280;64803;52.356;5.310;2023-03-03T14:28:24;103028.00;;;16.74;49.07
75933;BME280;64803;52.356;5.310;2023-03-03T14:30:54;103024.28;;;16.75;48.74
75933;BME280;64803;52.356;5.310;2023-03-03T14:33:25;103024.28;;;16.75;49.49
75933;BME280;64803;52.356;5.310;2023-03-03T14:38:36;103017.16;;;16.74;49.01
75933;BME280;64803;52.356;5.310;2023-03-03T14:41:13;103013.28;;;16.77;49.05
75933;BME280;64803;52.356;5.310;2023-03-03T14:43:43;103005.13;;;16.77;48.79
75933;BME280;64803;52.356;5.310;2023-03-03T14:48:55;102996.81;;;16.78;49.37
75933;BME280;64803;52.356;5.310;2023-03-03T14:51:25;103004.78;;;16.80;48.20
75933;BME280;64803;52.356;5.310;2023-03-03T14:53:54;103004.28;;;16.76;48.60
75933;BME280;64803;52.356;5.310;2023-03-03T14:56:25;103000.88;;;16.74;48.74
75933;BME280;64803;52.356;5.310;2023-03-03T14:59:31;103000.19;;;16.72;48.64
75933;BME280;64803;52.356;5.310;2023-03-03T15:02:23;103002.91;;;16.72;48.17
75933;BME280;64803;52.356;5.310;2023-03-03T15:05:11;102989.34;;;16.72;48.87
75933;BME280;64803;52.356;5.310;2023-03-03T15:07:38;102991.88;;;16.74;48.10
75933;BME280;64803;52.356;5.310;2023-03-03T15:10:06;102986.97;;;16.69;48.47
75933;BME280;64803;52.356;5.310;2023-03-03T15:15:19;102985.13;;;16.78;48.82
75933;BME280;64803;52.356;5.310;2023-03-03T15:28:45;102968.69;;;16.88;48.64
75933;BME280;64803;52.356;5.310;2023-03-03T15:41:36;102958.34;;;16.91;48.19
75933;BME280;64803;52.356;5.310;2023-03-03T15:49:47;102959.88;;;16.94;47.89
75933;BME280;64803;52.356;5.310;2023-03-03T16:00:52;102945.59;;;16.92;47.87
75933;BME280;64803;52.356;5.310;2023-03-03T16:03:35;102949.69;;;16.96;48.00
75933;BME280;64803;52.356;5.310;2023-03-03T16:06:10;102947.66;;;16.98;48.66
75933;BME280;64803;52.356;5.310;2023-03-03T16:17:35;102951.22;;;16.90;48.85
75933;BME280;64803;52.356;5.310;2023-03-03T16:20:17;102955.13;;;16.88;48.73
75933;BME280;64803;52.356;5.310;2023-03-03T16:23:02;102946.28;;;16.85;48.31
75933;BME280;64803;52.356;5.310;2023-03-03T16:28:41;102955.94;;;16.88;48.67
75933;BME280;64803;52.356;5.310;2023-03-03T16:31:24;102950.69;;;16.86;48.40
75933;BME280;64803;52.356;5.310;2023-03-03T16:42:25;102951.03;;;16.83;48.29
75933;BME280;64803;52.356;5.310;2023-03-03T16:52:47;102953.06;;;16.81;48.57
75933;BME280;64803;52.356;5.310;2023-03-03T16:55:20;102951.03;;;16.83;47.87
75933;BME280;64803;52.356;5.310;2023-03-03T16:58:21;102957.16;;;16.85;47.71
75933;BME280;64803;52.356;5.310;2023-03-03T17:01:06;102955.13;;;17.36;55.25
75933;BME280;64803;52.356;5.310;2023-03-03T17:04:09;102957.16;;;17.34;50.84
75933;BME280;64803;52.356;5.310;2023-03-03T17:09:22;102964.94;;;16.97;49.82
75933;BME280;64803;52.356;5.310;2023-03-03T17:12:05;102960.03;;;16.84;50.88
75933;BME280;64803;52.356;5.310;2023-03-03T17:14:52;102960.34;;;16.81;50.21
75933;BME280;64803;52.356;5.310;2023-03-03T17:17:27;102964.56;;;16.75;49.96
75933;BME280;64803;52.356;5.310;2023-03-03T17:26:03;102964.91;;;16.72;49.81
75933;BME280;64803;52.356;5.310;2023-03-03T17:42:17;102973.56;;;16.68;49.02
75933;BME280;64803;52.356;5.310;2023-03-03T17:52:59;102980.03;;;16.75;47.95
75933;BME280;64803;52.356;5.310;2023-03-03T18:01:54;102984.94;;;16.71;48.48
75933;BME280;64803;52.356;5.310;2023-03-03T18:04:04;102986.09;;;16.69;48.49
75933;BME280;64803;52.356;5.310;2023-03-03T18:06:52;102997.28;;;16.66;47.80
75933;BME280;64803;52.356;5.310;2023-03-03T18:09:39;102987.59;;;16.63;47.86
75933;BME280;64803;52.356;5.310;2023-03-03T18:20:50;102995.41;;;16.58;48.09
75933;BME280;64803;52.356;5.310;2023-03-03T18:23:41;102998.81;;;16.60;48.27
75933;BME280;64803;52.356;5.310;2023-03-03T18:34:38;103003.38;;;16.60;48.23
75933;BME280;64803;52.356;5.310;2023-03-03T18:45:10;102996.44;;;16.57;47.83
75933;BME280;64803;52.356;5.310;2023-03-03T18:48:08;103004.22;;;16.60;47.62
75933;BME280;64803;52.356;5.310;2023-03-03T18:50:42;103003.88;;;16.63;47.35
75933;BME280;64803;52.356;5.310;2023-03-03T18:55:45;103004.25;;;16.68;47.79
75933;BME280;64803;52.356;5.310;2023-03-03T19:00:51;103006.44;;;16.65;47.74
75933;BME280;64803;52.356;5.310;2023-03-03T19:06:04;102999.50;;;16.62;47.42
75933;BME280;64803;52.356;5.310;2023-03-03T19:11:02;102982.16;;;16.47;47.38
75933;BME280;64803;52.356;5.310;2023-03-03T19:21:27;103004.41;;;16.67;47.67
75933;BME280;64803;52.356;5.310;2023-03-03T19:24:45;103003.25;;;16.69;47.85
75933;BME280;64803;52.356;5.310;2023-03-03T19:30:06;103007.47;;;16.72;47.14
75933;BME280;64803;52.356;5.310;2023-03-03T19:39:02;103003.59;;;16.74;47.92
75933;BME280;64803;52.356;5.310;2023-03-03T19:45:00;103008.66;;;16.69;47.66
75933;BME280;64803;52.356;5.310;2023-03-03T19:50:21;103011.38;;;16.69;47.59
75933;BME280;64803;52.356;5.310;2023-03-03T19:54:11;103020.22;;;16.71;48.26
75933;BME280;64803;52.356;5.310;2023-03-03T19:56:39;103013.75;;;16.72;47.58
75933;BME280;64803;52.356;5.310;2023-03-03T20:02:25;103018.50;;;16.70;48.11
75933;BME280;64803;52.356;5.310;2023-03-03T20:05:16;103021.53;;;16.67;47.31
75933;BME280;64803;52.356;5.310;2023-03-03T20:10:47;103021.38;;;16.69;47.53
75933;BME280;64803;52.356;5.310;2023-03-03T20:13:18;103025.63;;;16.71;48.09
75933;BME280;64803;52.356;5.310;2023-03-03T20:27:21;103023.56;;;16.57;47.65
75933;BME280;64803;52.356;5.310;2023-03-03T20:30:04;103018.66;;;16.61;48.14
75933;BME280;64803;52.356;5.310;2023-03-03T20:54:10;103034.81;;;16.45;47.30
75933;BME280;64803;52.356;5.310;2023-03-03T21:04:33;103029.28;;;16.46;47.60
75933;BME280;64803;52.356;5.310;2023-03-03T21:07:02;103029.97;;;16.48;48.07
75933;BME280;64803;52.356;5.310;2023-03-03T21:11:56;103033.72;;;16.55;47.77
75933;BME280;64803;52.356;5.310;2023-03-03T21:14:25;103036.09;;;16.58;47.43
75933;BME280;64803;52.356;5.310;2023-03-03T21:16:53;103004.84;;;16.46;47.83
75933;BME280;64803;52.356;5.310;2023-03-03T21:19:30;103033.91;;;16.62;47.95
75933;BME280;64803;52.356;5.310;2023-03-03T21:21:58;103032.06;;;16.62;47.53
75933;BME280;64803;52.356;5.310;2023-03-03T21:24:47;103031.03;;;16.63;47.53
75933;BME280;64803;52.356;5.310;2023-03-03T21:27:31;103027.31;;;16.64;47.94
75933;BME280;64803;52.356;5.310;2023-03-03T21:30:09;103026.28;;;16.65;48.26
75933;BME280;64803;52.356;5.310;2023-03-03T21:32:40;103028.00;;;16.66;48.52
75933;BME280;64803;52.356;5.310;2023-03-03T21:35:13;103006.59;;;16.55;47.90
75933;BME280;64803;52.356;5.310;2023-03-03T21:37:52;103033.91;;;16.62;47.57
75933;BME280;64803;52.356;5.310;2023-03-03T21:42:45;103026.63;;;16.62;47.86
75933;BME280;64803;52.356;5.310;2023-03-03T21:45:13;103021.38;;;16.61;48.16
75933;BME280;64803;52.356;5.310;2023-03-03T21:47:40;103027.66;;;16.61;47.43
75933;BME280;64803;52.356;5.310;2023-03-03T21:50:06;103019.50;;;16.61;47.30
75933;BME280;64803;52.356;5.310;2023-03-03T21:52:33;103024.63;;;16.72;55.68
75933;BME280;64803;52.356;5.310;2023-03-03T21:54:59;103021.25;;;16.86;51.18
75933;BME280;64803;52.356;5.310;2023-03-03T21:57:25;103017.69;;;16.86;50.77
75933;BME280;64803;52.356;5.310;2023-03-03T21:59:51;103022.25;;;16.77;50.81
75933;BME280;64803;52.356;5.310;2023-03-03T22:02:18;103022.25;;;16.69;50.49
75933;BME280;64803;52.356;5.310;2023-03-03T22:04:44;103028.13;;;16.65;50.41
75933;BME280;64803;52.356;5.310;2023-03-03T22:07:10;103025.59;;;16.63;50.21
75933;BME280;64803;52.356;5.310;2023-03-03T22:09:36;103023.50;;;16.91;59.42
75933;BME280;64803;52.356;5.310;2023-03-03T22:12:03;103013.00;;;17.20;60.28
75933;BME280;64803;52.356;5.310;2023-03-03T22:14:30;103020.63;;;17.25;55.40
75933;BME280;64803;52.356;5.310;2023-03-03T22:16:56;103020.97;;;17.06;54.53
75933;BME280;64803;52.356;5.310;2023-03-03T22:19:22;103013.47;;;16.92;53.04
75933;BME280;64803;52.356;5.310;2023-03-03T22:21:48;103015.78;;;16.70;52.99
75933;BME280;64803;52.356;5.310;2023-03-03T22:24:15;103021.53;;;16.59;52.35
75933;BME280;64803;52.356;5.310;2023-03-03T22:26:41;103018.47;;;16.54;52.03
75933;BME280;64803;52.356;5.310;2023-03-03T22:29:08;103023.41;;;16.67;53.02
75933;BME280;64803;52.356;5.310;2023-03-03T22:31:35;103022.25;;;16.77;52.70
75933;BME280;64803;52.356;5.310;2023-03-03T22:34:01;103013.81;;;16.88;55.31
75933;BME280;64803;52.356;5.310;2023-03-03T22:36:27;103012.13;;;16.88;53.67
75933;BME280;64803;52.356;5.310;2023-03-03T22:38:53;103020.91;;;16.89;53.20
75933;BME280;64803;52.356;5.310;2023-03-03T22:41:20;103013.81;;;16.88;53.52
75933;BME280;64803;52.356;5.310;2023-03-03T22:43:46;103015.50;;;16.89;52.56
75933;BME280;64803;52.356;5.310;2023-03-03T22:46:13;103019.41;;;16.87;52.38
75933;BME280;64803;52.356;5.310;2023-03-03T22:48:39;103016.16;;;16.83;52.27
75933;BME280;64803;52.356;5.310;2023-03-03T22:51:05;103019.88;;;16.82;51.95
75933;BME280;64803;52.356;5.310;2023-03-03T22:53:31;103011.09;;;16.80;51.57
75933;BME280;64803;52.356;5.310;2023-03-03T22:55:57;103021.94;;;16.80;51.68
75933;BME280;64803;52.356;5.310;2023-03-03T22:58:23;103011.91;;;16.81;51.76
75933;BME280;64803;52.356;5.310;2023-03-03T23:00:52;103015.47;;;16.81;51.67
75933;BME280;64803;52.356;5.310;2023-03-03T23:03:19;103017.34;;;16.81;51.47
75933;BME280;64803;52.356;5.310;2023-03-03T23:05:46;103016.81;;;16.77;51.60
75933;BME280;64803;52.356;5.310;2023-03-03T23:08:14;103012.09;;;16.79;51.47
75933;BME280;64803;52.356;5.310;2023-03-03T23:10:40;103014.25;;;16.68;51.50
75933;BME280;64803;52.356;5.310;2023-03-03T23:13:07;103009.53;;;16.70;50.89
75933;BME280;64803;52.356;5.310;2023-03-03T23:15:34;103008.16;;;16.66;50.89
75933;BME280;64803;52.356;5.310;2023-03-03T23:18:00;103014.44;;;16.66;51.00
75933;BME280;64803;52.356;5.310;2023-03-03T23:20:28;103014.09;;;16.69;51.01
75933;BME280;64803;52.356;5.310;2023-03-03T23:22:55;103013.75;;;16.72;50.77
75933;BME280;64803;52.356;5.310;2023-03-03T23:25:21;103014.63;;;16.73;50.93
75933;BME280;64803;52.356;5.310;2023-03-03T23:27:48;103019.72;;;16.76;50.61
75933;BME280;64803;52.356;5.310;2023-03-03T23:30:15;103015.78;;;16.70;50.65
75933;BME280;64803;52.356;5.310;2023-03-03T23:32:41;103006.94;;;16.68;50.55
75933;BME280;64803;52.356;5.310;2023-03-03T23:35:08;103010.50;;;16.61;49.58
75933;BME280;64803;52.356;5.310;2023-03-03T23:37:34;103007.44;;;16.56;50.07
75933;BME280;64803;52.356;5.310;2023-03-03T23:40:02;103013.41;;;16.59;50.50
75933;BME280;64803;52.356;5.310;2023-03-03T23:42:28;103006.41;;;16.57;50.50
75933;BME280;64803;52.356;5.310;2023-03-03T23:44:55;103003.88;;;16.63;50.23
75933;BME280;64803;52.356;5.310;2023-03-03T23:47:22;103010.69;;;16.67;50.81
75933;BME280;64803;52.356;5.310;2023-03-03T23:49:48;103005.56;;;16.56;50.54
75933;BME280;64803;52.356;5.310;2023-03-03T23:52:14;103007.97;;;16.59;50.35
75933;BME280;64803;52.356;5.310;2023-03-03T23:54:41;103006.59;;;16.55;49.88
75933;BME280;64803;52.356;5.310;2023-03-03T23:57:07;103005.53;;;16.48;50.35
75933;BME280;64803;52.356;5.310;2023-03-03T23:59:34;103007.22;;;16.49;50.23
